sensor_id;sensor_type;location;lat;lon;timestamp;P1;P2;P0
46044;PMS7003;31781;54.094;13.428;2023-03-07T00:01:24;1.00;1.00;1.00
46044;PMS7003;31781;54.094;13.428;2023-03-07T00:03:27;0.00;0.00;0.00
46044;PMS7003;31781;54.094;13.428;2023-03-07T00:05:32;0.25;0.25;0.00
46044;PMS7003;31781;54.094;13.428;2023-03-07T00:07:35;1.25;1.00;0.75
46044;PMS7003;31781;54.094;13.428;2023-03-07T00:09:36;0.00;0.00;0.00
46044;PMS7003;31781;54.094;13.428;2023-03-07T00:11:38;1.00;1.00;0.50
46044;PMS7003;31781;54.094;13.428;2023-03-07T00:13:40;0.75;0.75;0.75
46044;PMS7003;31781;54.094;13.428;2023-03-07T00:15:42;0.00;0.00;0.00
46044;PMS7003;31781;54.094;13.428;2023-03-07T00:17:43;0.00;0.00;0.00
46044;PMS7003;31781;54.094;13.428;2023-03-07T00:19:45;1.00;0.00;0.00
46044;PMS7003;31781;54.094;13.428;2023-03-07T00:21:47;0.67;0.00;0.00
46044;PMS7003;31781;54.094;13.428;2023-03-07T00:23:51;0.00;0.00;0.00
46044;PMS7003;31781;54.094;13.428;2023-03-07T00:25:57;0.00;0.00;0.00
46044;PMS7003;31781;54.094;13.428;2023-03-07T00:28:00;1.00;1.00;0.75
46044;PMS7003;31781;54.094;13.428;2023-03-07T00:30:02;1.00;1.00;0.50
46044;PMS7003;31781;54.094;13.428;2023-03-07T00:32:06;0.25;0.25;0.25
46044;PMS7003;31781;54.094;13.428;2023-03-07T00:34:08;0.00;0.00;0.00
46044;PMS7003;31781;54.094;13.428;2023-03-07T00:36:11;0.00;0.00;0.00
46044;PMS7003;31781;54.094;13.428;2023-03-07T00:38:14;0.00;0.00;0.00
46044;PMS7003;31781;54.094;13.428;2023-03-07T00:40:17;0.00;0.00;0.00
46044;PMS7003;31781;54.094;13.428;2023-03-07T00:42:19;0.00;0.00;0.00
46044;PMS7003;31781;54.094;13.428;2023-03-07T00:44:21;0.00;0.00;0.00
46044;PMS7003;31781;54.094;13.428;2023-03-07T00:46:23;2.75;1.00;0.00
46044;PMS7003;31781;54.094;13.428;2023-03-07T00:48:26;0.00;0.00;0.00
46044;PMS7003;31781;54.094;13.428;2023-03-07T00:50:29;0.00;0.00;0.00
46044;PMS7003;31781;54.094;13.428;2023-03-07T00:52:30;1.75;1.00;0.00
46044;PMS7003;31781;54.094;13.428;2023-03-07T00:54:34;0.00;0.00;0.00
46044;PMS7003;31781;54.094;13.428;2023-03-07T00:56:37;1.00;1.00;0.00
46044;PMS7003;31781;54.094;13.428;2023-03-07T00:58:39;1.00;0.00;0.00
46044;PMS7003;31781;54.094;13.428;2023-03-07T01:00:41;0.00;0.00;0.00
46044;PMS7003;31781;54.094;13.428;2023-03-07T01:02:43;0.25;0.00;0.00
46044;PMS7003;31781;54.094;13.428;2023-03-07T01:04:44;0.00;0.00;0.00
46044;PMS7003;31781;54.094;13.428;2023-03-07T01:06:46;0.50;0.25;0.25
46044;PMS7003;31781;54.094;13.428;2023-03-07T01:08:48;0.00;0.00;0.00
46044;PMS7003;31781;54.094;13.428;2023-03-07T01:10:49;0.25;0.25;0.00
46044;PMS7003;31781;54.094;13.428;2023-03-07T01:12:53;1.00;1.00;0.00
46044;PMS7003;31781;54.094;13.428;2023-03-07T01:14:55;2.50;1.00;0.25
46044;PMS7003;31781;54.094;13.428;2023-03-07T01:16:57;1.00;1.00;0.75
46044;PMS7003;31781;54.094;13.428;2023-03-07T01:19:00;0.75;0.75;0.50
46044;PMS7003;31781;54.094;13.428;2023-03-07T01:21:10;0.50;0.50;0.00
46044;PMS7003;31781;54.094;13.428;2023-03-07T01:23:13;1.00;1.00;1.00
46044;PMS7003;31781;54.094;13.428;2023-03-07T01:25:15;1.00;1.00;1.00
46044;PMS7003;31781;54.094;13.428;2023-03-07T01:27:17;2.00;2.00;1.00
46044;PMS7003;31781;54.094;13.428;2023-03-07T01:29:19;1.75;1.75;1.00
46044;PMS7003;31781;54.094;13.428;2023-03-07T01:31:21;0.00;0.00;0.00
46044;PMS7003;31781;54.094;13.428;2023-03-07T01:33:24;1.75;1.75;1.75
46044;PMS7003;31781;54.094;13.428;2023-03-07T01:35:26;2.00;2.00;1.75
46044;PMS7003;31781;54.094;13.428;2023-03-07T01:37:28;1.50;1.50;1.00
46044;PMS7003;31781;54.094;13.428;2023-03-07T01:39:30;1.00;1.00;1.00
46044;PMS7003;31781;54.094;13.428;2023-03-07T01:41:32;3.25;1.00;1.00
46044;PMS7003;31781;54.094;13.428;2023-03-07T01:43:36;4.00;0.00;0.00
46044;PMS7003;31781;54.094;13.428;2023-03-07T01:48:23;4.00;1.50;1.00
46044;PMS7003;31781;54.094;13.428;2023-03-07T01:50:25;2.50;2.00;1.50
46044;PMS7003;31781;54.094;13.428;2023-03-07T01:52:29;3.50;3.50;1.75
46044;PMS7003;31781;54.094;13.428;2023-03-07T01:54:34;1.00;1.00;1.00
46044;PMS7003;31781;54.094;13.428;2023-03-07T01:56:39;1.00;1.00;1.00
46044;PMS7003;31781;54.094;13.428;2023-03-07T01:58:43;1.25;1.25;1.25
46044;PMS7003;31781;54.094;13.428;2023-03-07T02:00:46;3.00;3.00;2.00
46044;PMS7003;31781;54.094;13.428;2023-03-07T02:02:50;0.50;0.25;0.25
46044;PMS7003;31781;54.094;13.428;2023-03-07T02:04:59;2.00;2.00;1.25
46044;PMS7003;31781;54.094;13.428;2023-03-07T02:07:06;1.50;1.50;1.00
46044;PMS7003;31781;54.094;13.428;2023-03-07T02:09:10;4.25;4.25;2.00
46044;PMS7003;31781;54.094;13.428;2023-03-07T02:11:15;3.00;3.00;2.00
46044;PMS7003;31781;54.094;13.428;2023-03-07T02:13:18;3.00;2.00;1.00
46044;PMS7003;31781;54.094;13.428;2023-03-07T02:15:19;1.25;1.25;1.00
46044;PMS7003;31781;54.094;13.428;2023-03-07T02:17:22;1.00;1.00;1.00
46044;PMS7003;31781;54.094;13.428;2023-03-07T02:19:28;7.50;4.25;2.50
46044;PMS7003;31781;54.094;13.428;2023-03-07T02:21:40;2.50;2.50;2.00
46044;PMS7003;31781;54.094;13.428;2023-03-07T02:23:48;2.00;2.00;1.00
46044;PMS7003;31781;54.094;13.428;2023-03-07T02:25:58;2.50;2.50;1.75
46044;PMS7003;31781;54.094;13.428;2023-03-07T02:28:07;2.00;2.00;1.75
46044;PMS7003;31781;54.094;13.428;2023-03-07T02:30:12;4.25;2.50;1.00
46044;PMS7003;31781;54.094;13.428;2023-03-07T02:32:13;1.50;1.50;1.00
46044;PMS7003;31781;54.094;13.428;2023-03-07T02:34:19;6.00;1.00;1.00
46044;PMS7003;31781;54.094;13.428;2023-03-07T02:36:23;3.00;3.00;2.50
46044;PMS7003;31781;54.094;13.428;2023-03-07T02:38:29;3.50;2.50;2.00
46044;PMS7003;31781;54.094;13.428;2023-03-07T02:40:33;2.75;2.50;2.00
46044;PMS7003;31781;54.094;13.428;2023-03-07T02:42:36;1.25;1.25;1.00
46044;PMS7003;31781;54.094;13.428;2023-03-07T02:44:44;5.75;1.75;1.00
46044;PMS7003;31781;54.094;13.428;2023-03-07T02:46:46;2.00;2.00;1.75
46044;PMS7003;31781;54.094;13.428;2023-03-07T02:48:48;2.00;2.00;1.50
46044;PMS7003;31781;54.094;13.428;2023-03-07T02:50:50;2.00;2.00;2.00
46044;PMS7003;31781;54.094;13.428;2023-03-07T02:52:51;3.50;3.50;2.00
46044;PMS7003;31781;54.094;13.428;2023-03-07T02:54:53;4.00;4.00;2.00
46044;PMS7003;31781;54.094;13.428;2023-03-07T02:56:55;4.00;4.00;2.00
46044;PMS7003;31781;54.094;13.428;2023-03-07T02:58:57;4.00;4.00;2.00
46044;PMS7003;31781;54.094;13.428;2023-03-07T03:01:01;2.00;2.00;1.50
46044;PMS7003;31781;54.094;13.428;2023-03-07T03:03:02;4.75;2.00;1.75
46044;PMS7003;31781;54.094;13.428;2023-03-07T03:05:05;2.00;2.00;2.00
46044;PMS7003;31781;54.094;13.428;2023-03-07T03:07:08;2.50;2.50;2.50
46044;PMS7003;31781;54.094;13.428;2023-03-07T03:09:10;2.00;2.00;1.75
46044;PMS7003;31781;54.094;13.428;2023-03-07T03:11:12;4.50;4.50;2.00
46044;PMS7003;31781;54.094;13.428;2023-03-07T03:13:14;3.50;3.50;2.50
46044;PMS7003;31781;54.094;13.428;2023-03-07T03:15:16;3.00;2.00;1.00
46044;PMS7003;31781;54.094;13.428;2023-03-07T03:17:19;2.00;2.00;1.00
46044;PMS7003;31781;54.094;13.428;2023-03-07T03:19:22;1.50;1.50;1.00
46044;PMS7003;31781;54.094;13.428;2023-03-07T03:21:23;0.00;0.00;0.00
46044;PMS7003;31781;54.094;13.428;2023-03-07T03:23:26;3.50;3.50;1.75
46044;PMS7003;31781;54.094;13.428;2023-03-07T03:25:28;4.75;2.00;1.25
46044;PMS7003;31781;54.094;13.428;2023-03-07T03:27:30;3.25;1.75;1.00
46044;PMS7003;31781;54.094;13.428;2023-03-07T03:29:32;1.00;1.00;1.00
46044;PMS7003;31781;54.094;13.428;2023-03-07T03:31:34;1.00;1.00;1.00
46044;PMS7003;31781;54.094;13.428;2023-03-07T03:33:37;1.00;1.00;1.00
46044;PMS7003;31781;54.094;13.428;2023-03-07T03:35:39;1.00;1.00;1.00
46044;PMS7003;31781;54.094;13.428;2023-03-07T03:37:40;2.00;2.00;2.00
46044;PMS7003;31781;54.094;13.428;2023-03-07T03:39:44;2.00;2.00;1.75
46044;PMS7003;31781;54.094;13.428;2023-03-07T03:41:46;1.00;1.00;1.00
46044;PMS7003;31781;54.094;13.428;2023-03-07T03:43:48;1.50;1.50;1.50
46044;PMS7003;31781;54.094;13.428;2023-03-07T03:45:53;0.67;0.67;0.33
46044;PMS7003;31781;54.094;13.428;2023-03-07T03:47:55;1.33;1.33;1.00
46044;PMS7003;31781;54.094;13.428;2023-03-07T03:50:00;1.00;1.00;0.00
46044;PMS7003;31781;54.094;13.428;2023-03-07T03:52:02;2.00;2.00;1.00
46044;PMS7003;31781;54.094;13.428;2023-03-07T03:54:05;1.00;1.00;1.00
46044;PMS7003;31781;54.094;13.428;2023-03-07T03:56:07;1.00;1.00;1.00
46044;PMS7003;31781;54.094;13.428;2023-03-07T03:58:11;1.00;1.00;1.00
46044;PMS7003;31781;54.094;13.428;2023-03-07T04:00:13;0.33;0.33;0.33
46044;PMS7003;31781;54.094;13.428;2023-03-07T04:02:15;1.33;1.00;1.00
46044;PMS7003;31781;54.094;13.428;2023-03-07T04:04:17;1.00;1.00;0.00
46044;PMS7003;31781;54.094;13.428;2023-03-07T04:06:21;1.00;1.00;1.00
46044;PMS7003;31781;54.094;13.428;2023-03-07T04:08:24;1.00;1.00;0.67
46044;PMS7003;31781;54.094;13.428;2023-03-07T04:10:26;0.00;0.00;0.00
46044;PMS7003;31781;54.094;13.428;2023-03-07T04:12:28;0.00;0.00;0.00
46044;PMS7003;31781;54.094;13.428;2023-03-07T04:14:29;1.00;1.00;1.00
46044;PMS7003;31781;54.094;13.428;2023-03-07T04:16:31;4.00;4.00;1.00
46044;PMS7003;31781;54.094;13.428;2023-03-07T04:18:34;1.00;1.00;1.00
46044;PMS7003;31781;54.094;13.428;2023-03-07T04:20:36;2.00;2.00;1.67
46044;PMS7003;31781;54.094;13.428;2023-03-07T04:22:39;2.67;2.67;2.00
46044;PMS7003;31781;54.094;13.428;2023-03-07T04:24:41;2.00;2.00;1.75
46044;PMS7003;31781;54.094;13.428;2023-03-07T04:26:42;2.25;1.50;1.00
46044;PMS7003;31781;54.094;13.428;2023-03-07T04:28:44;2.00;2.00;1.00
46044;PMS7003;31781;54.094;13.428;2023-03-07T04:30:46;2.00;2.00;1.75
46044;PMS7003;31781;54.094;13.428;2023-03-07T04:32:48;2.00;1.75;1.75
46044;PMS7003;31781;54.094;13.428;2023-03-07T04:34:50;4.00;3.33;2.00
46044;PMS7003;31781;54.094;13.428;2023-03-07T04:36:52;2.00;2.00;1.50
46044;PMS7003;31781;54.094;13.428;2023-03-07T04:39:05;3.50;3.50;3.50
46044;PMS7003;31781;54.094;13.428;2023-03-07T04:41:07;5.00;5.00;4.00
46044;PMS7003;31781;54.094;13.428;2023-03-07T04:43:13;7.00;7.00;4.75
46044;PMS7003;31781;54.094;13.428;2023-03-07T04:45:17;3.75;3.75;2.00
46044;PMS7003;31781;54.094;13.428;2023-03-07T04:47:19;7.25;3.50;1.25
46044;PMS7003;31781;54.094;13.428;2023-03-07T04:49:20;10.75;10.25;6.50
46044;PMS7003;31781;54.094;13.428;2023-03-07T04:51:25;5.00;5.00;4.00
46044;PMS7003;31781;54.094;13.428;2023-03-07T04:53:27;7.00;5.00;3.00
46044;PMS7003;31781;54.094;13.428;2023-03-07T04:55:30;6.50;6.50;4.00
46044;PMS7003;31781;54.094;13.428;2023-03-07T04:57:32;5.50;5.50;4.00
46044;PMS7003;31781;54.094;13.428;2023-03-07T04:59:34;14.00;9.25;5.00
46044;PMS7003;31781;54.094;13.428;2023-03-07T05:01:36;11.75;11.50;8.00
46044;PMS7003;31781;54.094;13.428;2023-03-07T05:03:38;10.25;10.00;7.00
46044;PMS7003;31781;54.094;13.428;2023-03-07T05:05:39;8.00;8.00;6.00
46044;PMS7003;31781;54.094;13.428;2023-03-07T05:07:41;10.50;10.50;8.00
46044;PMS7003;31781;54.094;13.428;2023-03-07T05:09:44;14.25;11.00;5.00
46044;PMS7003;31781;54.094;13.428;2023-03-07T05:11:49;15.50;12.25;9.25
46044;PMS7003;31781;54.094;13.428;2023-03-07T05:13:53;15.00;15.00;11.00
46044;PMS7003;31781;54.094;13.428;2023-03-07T05:15:56;17.25;14.75;10.00
46044;PMS7003;31781;54.094;13.428;2023-03-07T05:17:58;15.75;12.25;8.50
46044;PMS7003;31781;54.094;13.428;2023-03-07T05:20:00;21.75;20.00;14.00
46044;PMS7003;31781;54.094;13.428;2023-03-07T05:22:02;30.50;26.00;19.25
46044;PMS7003;31781;54.094;13.428;2023-03-07T05:24:04;18.50;16.00;12.75
46044;PMS7003;31781;54.094;13.428;2023-03-07T05:26:06;10.00;5.50;2.00
46044;PMS7003;31781;54.094;13.428;2023-03-07T05:28:09;17.25;15.00;8.00
46044;PMS7003;31781;54.094;13.428;2023-03-07T05:30:11;11.50;10.25;8.00
46044;PMS7003;31781;54.094;13.428;2023-03-07T05:32:13;18.00;14.25;9.00
46044;PMS7003;31781;54.094;13.428;2023-03-07T05:34:15;15.50;14.50;10.00
46044;PMS7003;31781;54.094;13.428;2023-03-07T05:36:17;20.25;16.00;11.25
46044;PMS7003;31781;54.094;13.428;2023-03-07T05:38:19;8.50;8.50;8.00
46044;PMS7003;31781;54.094;13.428;2023-03-07T05:40:20;18.75;18.00;12.25
46044;PMS7003;31781;54.094;13.428;2023-03-07T05:42:22;16.75;13.25;8.25
46044;PMS7003;31781;54.094;13.428;2023-03-07T05:44:26;12.50;11.00;8.00
46044;PMS7003;31781;54.094;13.428;2023-03-07T05:46:27;18.00;17.00;9.25
46044;PMS7003;31781;54.094;13.428;2023-03-07T05:48:29;15.25;15.00;8.00
46044;PMS7003;31781;54.094;13.428;2023-03-07T05:50:31;18.75;16.25;11.00
46044;PMS7003;31781;54.094;13.428;2023-03-07T05:52:33;15.00;11.25;7.50
46044;PMS7003;31781;54.094;13.428;2023-03-07T05:54:35;21.00;16.50;12.00
46044;PMS7003;31781;54.094;13.428;2023-03-07T05:56:37;21.25;20.50;13.75
46044;PMS7003;31781;54.094;13.428;2023-03-07T05:58:39;15.75;14.00;8.75
46044;PMS7003;31781;54.094;13.428;2023-03-07T06:00:42;18.25;13.75;9.00
46044;PMS7003;31781;54.094;13.428;2023-03-07T06:02:44;14.25;14.25;8.75
46044;PMS7003;31781;54.094;13.428;2023-03-07T06:04:45;14.25;14.25;10.00
46044;PMS7003;31781;54.094;13.428;2023-03-07T06:06:47;22.00;17.50;13.75
46044;PMS7003;31781;54.094;13.428;2023-03-07T06:08:49;14.00;9.25;5.50
46044;PMS7003;31781;54.094;13.428;2023-03-07T06:10:52;11.75;11.00;8.00
46044;PMS7003;31781;54.094;13.428;2023-03-07T06:12:55;17.75;15.25;9.25
46044;PMS7003;31781;54.094;13.428;2023-03-07T06:14:56;17.75;16.00;11.00
46044;PMS7003;31781;54.094;13.428;2023-03-07T06:17:00;15.25;15.25;11.25
46044;PMS7003;31781;54.094;13.428;2023-03-07T06:19:01;12.00;10.50;8.00
46044;PMS7003;31781;54.094;13.428;2023-03-07T06:21:04;5.00;5.00;4.75
46044;PMS7003;31781;54.094;13.428;2023-03-07T06:23:07;17.25;15.50;9.50
46044;PMS7003;31781;54.094;13.428;2023-03-07T06:25:09;12.50;12.50;8.25
46044;PMS7003;31781;54.094;13.428;2023-03-07T06:27:11;13.75;10.75;7.75
46044;PMS7003;31781;54.094;13.428;2023-03-07T06:29:12;17.75;12.00;9.25
46044;PMS7003;31781;54.094;13.428;2023-03-07T06:31:15;10.75;10.00;8.00
46044;PMS7003;31781;54.094;13.428;2023-03-07T06:33:20;11.25;11.25;7.00
46044;PMS7003;31781;54.094;13.428;2023-03-07T06:35:21;5.00;5.00;4.00
46044;PMS7003;31781;54.094;13.428;2023-03-07T06:37:23;12.00;9.33;5.67
46044;PMS7003;31781;54.094;13.428;2023-03-07T06:39:25;9.75;8.25;4.00
46044;PMS7003;31781;54.094;13.428;2023-03-07T06:41:26;14.25;10.75;8.00
46044;PMS7003;31781;54.094;13.428;2023-03-07T06:45:59;8.00;8.00;5.00
46044;PMS7003;31781;54.094;13.428;2023-03-07T06:48:01;11.25;11.25;8.00
46044;PMS7003;31781;54.094;13.428;2023-03-07T06:50:06;12.25;10.25;7.50
46044;PMS7003;31781;54.094;13.428;2023-03-07T06:52:09;10.00;10.00;7.50
46044;PMS7003;31781;54.094;13.428;2023-03-07T06:54:11;8.75;8.75;6.75
46044;PMS7003;31781;54.094;13.428;2023-03-07T06:56:13;8.00;7.00;5.00
46044;PMS7003;31781;54.094;13.428;2023-03-07T06:58:15;7.00;7.00;5.25
46044;PMS7003;31781;54.094;13.428;2023-03-07T07:00:17;11.00;8.00;7.00
46044;PMS7003;31781;54.094;13.428;2023-03-07T07:02:19;12.00;8.00;6.25
46044;PMS7003;31781;54.094;13.428;2023-03-07T07:04:21;7.33;7.33;5.00
46044;PMS7003;31781;54.094;13.428;2023-03-07T07:06:24;9.00;7.67;4.67
46044;PMS7003;31781;54.094;13.428;2023-03-07T07:08:26;8.67;8.67;6.33
46044;PMS7003;31781;54.094;13.428;2023-03-07T07:10:28;11.00;11.00;6.33
46044;PMS7003;31781;54.094;13.428;2023-03-07T07:12:30;9.67;9.67;7.67
46044;PMS7003;31781;54.094;13.428;2023-03-07T07:14:32;11.00;9.67;7.33
46044;PMS7003;31781;54.094;13.428;2023-03-07T07:16:34;6.33;5.33;4.67
46044;PMS7003;31781;54.094;13.428;2023-03-07T07:18:36;5.00;5.00;4.00
46044;PMS7003;31781;54.094;13.428;2023-03-07T07:20:38;13.00;11.67;6.33
46044;PMS7003;31781;54.094;13.428;2023-03-07T07:22:41;10.33;8.00;5.00
46044;PMS7003;31781;54.094;13.428;2023-03-07T07:24:43;10.00;9.67;6.00
46044;PMS7003;31781;54.094;13.428;2023-03-07T07:26:44;6.67;6.67;5.33
46044;PMS7003;31781;54.094;13.428;2023-03-07T07:28:46;18.67;12.00;9.67
46044;PMS7003;31781;54.094;13.428;2023-03-07T07:30:48;12.33;9.00;6.00
46044;PMS7003;31781;54.094;13.428;2023-03-07T07:32:49;8.33;8.33;5.67
46044;PMS7003;31781;54.094;13.428;2023-03-07T07:34:51;9.00;9.00;8.00
46044;PMS7003;31781;54.094;13.428;2023-03-07T07:36:53;13.00;11.33;8.00
46044;PMS7003;31781;54.094;13.428;2023-03-07T07:38:57;7.67;7.67;6.67
46044;PMS7003;31781;54.094;13.428;2023-03-07T07:40:58;8.00;5.33;5.00
46044;PMS7003;31781;54.094;13.428;2023-03-07T07:43:00;10.00;8.33;6.00
46044;PMS7003;31781;54.094;13.428;2023-03-07T07:45:02;10.67;10.67;8.00
46044;PMS7003;31781;54.094;13.428;2023-03-07T07:47:05;8.33;8.33;5.00
46044;PMS7003;31781;54.094;13.428;2023-03-07T07:49:07;10.67;8.67;6.67
46044;PMS7003;31781;54.094;13.428;2023-03-07T07:51:09;9.67;8.00;5.00
46044;PMS7003;31781;54.094;13.428;2023-03-07T07:53:11;7.00;6.67;5.00
46044;PMS7003;31781;54.094;13.428;2023-03-07T07:55:15;13.00;10.67;8.00
46044;PMS7003;31781;54.094;13.428;2023-03-07T07:57:17;10.33;10.33;8.67
46044;PMS7003;31781;54.094;13.428;2023-03-07T07:59:20;10.00;9.00;5.33
46044;PMS7003;31781;54.094;13.428;2023-03-07T08:01:23;11.33;10.67;8.00
46044;PMS7003;31781;54.094;13.428;2023-03-07T08:03:25;10.00;9.67;7.67
46044;PMS7003;31781;54.094;13.428;2023-03-07T08:05:27;9.33;9.33;6.67
46044;PMS7003;31781;54.094;13.428;2023-03-07T08:07:29;9.00;9.00;6.00
46044;PMS7003;31781;54.094;13.428;2023-03-07T08:09:30;9.00;9.00;7.00
46044;PMS7003;31781;54.094;13.428;2023-03-07T08:11:33;6.33;6.33;5.33
46044;PMS7003;31781;54.094;13.428;2023-03-07T08:13:35;8.67;8.67;5.33
46044;PMS7003;31781;54.094;13.428;2023-03-07T08:15:37;8.33;6.00;3.67
46044;PMS7003;31781;54.094;13.428;2023-03-07T08:17:39;9.33;9.33;7.00
46044;PMS7003;31781;54.094;13.428;2023-03-07T08:19:41;9.67;9.67;7.67
46044;PMS7003;31781;54.094;13.428;2023-03-07T08:21:42;10.00;7.33;7.33
46044;PMS7003;31781;54.094;13.428;2023-03-07T08:23:44;11.33;9.67;7.33
46044;PMS7003;31781;54.094;13.428;2023-03-07T08:25:46;9.33;9.33;6.00
46044;PMS7003;31781;54.094;13.428;2023-03-07T08:27:49;11.33;9.33;7.33
46044;PMS7003;31781;54.094;13.428;2023-03-07T08:29:51;3.33;3.33;2.67
46044;PMS7003;31781;54.094;13.428;2023-03-07T08:31:53;5.67;5.67;4.33
46044;PMS7003;31781;54.094;13.428;2023-03-07T08:33:55;12.33;10.67;7.67
46044;PMS7003;31781;54.094;13.428;2023-03-07T08:35:57;9.33;9.00;6.67
46044;PMS7003;31781;54.094;13.428;2023-03-07T08:37:59;7.67;7.67;6.00
46044;PMS7003;31781;54.094;13.428;2023-03-07T08:40:02;15.00;9.33;6.00
46044;PMS7003;31781;54.094;13.428;2023-03-07T08:42:04;7.33;7.33;6.00
46044;PMS7003;31781;54.094;13.428;2023-03-07T08:44:07;7.33;7.33;5.67
46044;PMS7003;31781;54.094;13.428;2023-03-07T08:46:09;9.00;9.00;5.00
46044;PMS7003;31781;54.094;13.428;2023-03-07T08:48:11;10.33;9.00;5.00
46044;PMS7003;31781;54.094;13.428;2023-03-07T08:50:13;5.00;5.00;4.67
46044;PMS7003;31781;54.094;13.428;2023-03-07T08:52:14;5.00;5.00;2.67
46044;PMS7003;31781;54.094;13.428;2023-03-07T08:54:16;8.33;6.00;5.00
46044;PMS7003;31781;54.094;13.428;2023-03-07T08:56:18;6.33;5.00;3.33
46044;PMS7003;31781;54.094;13.428;2023-03-07T08:58:20;3.67;3.67;2.67
46044;PMS7003;31781;54.094;13.428;2023-03-07T09:00:23;7.00;7.00;5.00
46044;PMS7003;31781;54.094;13.428;2023-03-07T09:02:25;6.00;3.67;3.00
46044;PMS7003;31781;54.094;13.428;2023-03-07T09:04:27;5.00;5.00;3.33
46044;PMS7003;31781;54.094;13.428;2023-03-07T09:06:29;5.00;5.00;5.00
46044;PMS7003;31781;54.094;13.428;2023-03-07T09:08:31;5.33;5.33;2.33
46044;PMS7003;31781;54.094;13.428;2023-03-07T09:10:33;6.00;6.00;5.00
46044;PMS7003;31781;54.094;13.428;2023-03-07T09:12:35;4.33;4.33;2.00
46044;PMS7003;31781;54.094;13.428;2023-03-07T09:14:37;3.00;3.00;2.00
46044;PMS7003;31781;54.094;13.428;2023-03-07T09:16:40;5.67;3.67;2.00
46044;PMS7003;31781;54.094;13.428;2023-03-07T09:18:42;2.67;2.67;2.00
46044;PMS7003;31781;54.094;13.428;2023-03-07T09:20:44;7.33;5.00;3.33
46044;PMS7003;31781;54.094;13.428;2023-03-07T09:22:45;3.67;3.67;3.67
46044;PMS7003;31781;54.094;13.428;2023-03-07T09:24:47;3.33;1.33;1.00
46044;PMS7003;31781;54.094;13.428;2023-03-07T09:26:49;2.33;2.33;2.00
46044;PMS7003;31781;54.094;13.428;2023-03-07T09:28:50;15.33;12.00;7.33
46044;PMS7003;31781;54.094;13.428;2023-03-07T09:30:52;2.00;2.00;2.00
46044;PMS7003;31781;54.094;13.428;2023-03-07T09:32:55;4.67;4.67;2.67
46044;PMS7003;31781;54.094;13.428;2023-03-07T09:34:57;3.00;2.00;2.00
46044;PMS7003;31781;54.094;13.428;2023-03-07T09:36:59;1.00;1.00;0.67
46044;PMS7003;31781;54.094;13.428;2023-03-07T09:39:01;5.67;3.33;2.00
46044;PMS7003;31781;54.094;13.428;2023-03-07T09:41:05;1.00;1.00;1.00
46044;PMS7003;31781;54.094;13.428;2023-03-07T09:43:22;5.00;1.00;1.00
46044;PMS7003;31781;54.094;13.428;2023-03-07T09:45:30;6.67;5.00;1.00
46044;PMS7003;31781;54.094;13.428;2023-03-07T09:50:18;1.67;1.67;1.00
46044;PMS7003;31781;54.094;13.428;2023-03-07T09:52:27;1.00;1.00;0.00
46044;PMS7003;31781;54.094;13.428;2023-03-07T09:54:36;0.00;0.00;0.00
46044;PMS7003;31781;54.094;13.428;2023-03-07T09:56:42;0.00;0.00;0.00
46044;PMS7003;31781;54.094;13.428;2023-03-07T09:58:47;5.00;2.00;2.00
46044;PMS7003;31781;54.094;13.428;2023-03-07T10:00:55;0.00;0.00;0.00
46044;PMS7003;31781;54.094;13.428;2023-03-07T10:03:03;1.00;1.00;1.00
46044;PMS7003;31781;54.094;13.428;2023-03-07T10:05:20;2.00;2.00;2.00
46044;PMS7003;31781;54.094;13.428;2023-03-07T10:07:27;1.00;1.00;1.00
46044;PMS7003;31781;54.094;13.428;2023-03-07T10:09:29;1.00;1.00;1.00
46044;PMS7003;31781;54.094;13.428;2023-03-07T10:14:03;0.67;0.67;0.00
46044;PMS7003;31781;54.094;13.428;2023-03-07T10:16:20;0.00;0.00;0.00
46044;PMS7003;31781;54.094;13.428;2023-03-07T10:18:40;0.00;0.00;0.00
46044;PMS7003;31781;54.094;13.428;2023-03-07T10:20:59;1.00;1.00;1.00
46044;PMS7003;31781;54.094;13.428;2023-03-07T10:23:16;1.67;1.00;1.00
46044;PMS7003;31781;54.094;13.428;2023-03-07T10:25:26;0.00;0.00;0.00
46044;PMS7003;31781;54.094;13.428;2023-03-07T10:27:29;5.33;2.67;2.00
46044;PMS7003;31781;54.094;13.428;2023-03-07T10:29:35;0.00;0.00;0.00
46044;PMS7003;31781;54.094;13.428;2023-03-07T10:31:41;0.67;0.00;0.00
46044;PMS7003;31781;54.094;13.428;2023-03-07T10:33:48;1.00;1.00;0.00
46044;PMS7003;31781;54.094;13.428;2023-03-07T10:35:53;0.67;0.67;0.67
46044;PMS7003;31781;54.094;13.428;2023-03-07T10:38:02;1.00;1.00;1.00
46044;PMS7003;31781;54.094;13.428;2023-03-07T10:40:16;0.33;0.33;0.33
46044;PMS7003;31781;54.094;13.428;2023-03-07T10:42:22;0.00;0.00;0.00
46044;PMS7003;31781;54.094;13.428;2023-03-07T10:44:26;0.00;0.00;0.00
46044;PMS7003;31781;54.094;13.428;2023-03-07T10:46:32;2.00;1.00;0.00
46044;PMS7003;31781;54.094;13.428;2023-03-07T10:48:33;1.00;1.00;0.00
46044;PMS7003;31781;54.094;13.428;2023-03-07T10:50:40;0.00;0.00;0.00
46044;PMS7003;31781;54.094;13.428;2023-03-07T10:52:47;0.00;0.00;0.00
46044;PMS7003;31781;54.094;13.428;2023-03-07T10:54:53;0.00;0.00;0.00
46044;PMS7003;31781;54.094;13.428;2023-03-07T10:57:01;0.00;0.00;0.00
46044;PMS7003;31781;54.094;13.428;2023-03-07T10:59:05;2.00;0.00;0.00
46044;PMS7003;31781;54.094;13.428;2023-03-07T11:01:13;0.00;0.00;0.00
46044;PMS7003;31781;54.094;13.428;2023-03-07T11:03:21;1.00;0.00;0.00
46044;PMS7003;31781;54.094;13.428;2023-03-07T11:05:28;0.00;0.00;0.00
46044;PMS7003;31781;54.094;13.428;2023-03-07T11:07:32;0.00;0.00;0.00
46044;PMS7003;31781;54.094;13.428;2023-03-07T11:09:37;0.00;0.00;0.00
46044;PMS7003;31781;54.094;13.428;2023-03-07T11:11:50;1.00;0.00;0.00
46044;PMS7003;31781;54.094;13.428;2023-03-07T11:14:04;0.00;0.00;0.00
46044;PMS7003;31781;54.094;13.428;2023-03-07T11:16:08;0.00;0.00;0.00
46044;PMS7003;31781;54.094;13.428;2023-03-07T11:18:26;1.33;1.33;0.00
46044;PMS7003;31781;54.094;13.428;2023-03-07T11:20:30;1.00;0.00;0.00
46044;PMS7003;31781;54.094;13.428;2023-03-07T11:22:48;0.00;0.00;0.00
46044;PMS7003;31781;54.094;13.428;2023-03-07T11:24:52;0.00;0.00;0.00
46044;PMS7003;31781;54.094;13.428;2023-03-07T11:26:58;0.00;0.00;0.00
46044;PMS7003;31781;54.094;13.428;2023-03-07T11:29:05;0.00;0.00;0.00
46044;PMS7003;31781;54.094;13.428;2023-03-07T11:31:12;0.00;0.00;0.00
46044;PMS7003;31781;54.094;13.428;2023-03-07T11:33:24;0.00;0.00;0.00
46044;PMS7003;31781;54.094;13.428;2023-03-07T11:35:46;1.00;0.00;0.00
46044;PMS7003;31781;54.094;13.428;2023-03-07T11:38:00;0.00;0.00;0.00
46044;PMS7003;31781;54.094;13.428;2023-03-07T11:40:13;0.00;0.00;0.00
46044;PMS7003;31781;54.094;13.428;2023-03-07T11:42:25;2.00;0.33;0.00
46044;PMS7003;31781;54.094;13.428;2023-03-07T11:44:33;0.00;0.00;0.00
46044;PMS7003;31781;54.094;13.428;2023-03-07T11:46:56;0.00;0.00;0.00
46044;PMS7003;31781;54.094;13.428;2023-03-07T11:49:22;0.00;0.00;0.00
46044;PMS7003;31781;54.094;13.428;2023-03-07T11:51:38;0.33;0.33;0.00
46044;PMS7003;31781;54.094;13.428;2023-03-07T11:53:50;0.00;0.00;0.00
46044;PMS7003;31781;54.094;13.428;2023-03-07T11:56:10;0.00;0.00;0.00
46044;PMS7003;31781;54.094;13.428;2023-03-07T11:58:26;0.33;0.00;0.00
46044;PMS7003;31781;54.094;13.428;2023-03-07T12:00:51;0.00;0.00;0.00